Pelham, Texas
Current Conditions -  °F | °C
As of 10:53 PM on Tuesday 21 Oct 2014 (Local Time) from KCNW Reporting Station
Clear Clear  
Wind Chill: 19°   Ceiling: Unl
Heat Index: 19°   Visibility: 10mi
Dew Point: 15°   Wind: 0mph
Humidity: 78%   Direction: NA
Pressure: 30.06"   Gusts: NA
Location:  31.8345°N, 96.8135°W
Report Text: KCNW 220353Z 00000KT 10SM SKC 19/15 A3006
Loading
Personal Weather Stations






























Interactive Weather Map
Tropical Storm Tracking
New forecast layout! Learn more

10-Day Weather Forecast

Advertisements
Track Severe Weather on mobile